Accueil
METAR-TAF:

METAR-TAF

Aéroports :

Atka, Alaska, États-Unis

latitude: 52-13-13N, longitude: 174-12-23W, altitude: 17 m

Observation

Le bulletin a été fait il y a 7 minutes, à 11:35 UTC
Vent 20 kt de nord-ouest avec des rafales jusqu'à 25 kt
Température 1°C
Humidité 80%
Pression 998 hPa
Visibilité: 14.5 km
Nuages épars à une hauteur de 1600 ft
Nuages épars à une hauteur de 2600 ft
pluie faible

METAR: PAAK 181135Z AUTO 31020G25KT 9SM -RA SCT016 SCT026 01/M02 A2948 RMK AO2 PK WND 30026/1123 RAE19B35UPB01E05SNB19E31 P0000 FZRANO

Heure: 02:42 (11:42 UTC)


TAF: absent

Observations et prévisions météorologiques de plus de 4000 aéroports (messages METAR et TAF).

Les stations disponibles sont représentées par des disques jaunes et rouges sur la carte.

Passer la souris dessus pour voir le nom de la station.

Cliquer dessus pour voir les observations et prévisions météorologiques.

Pour changer de carte: cliquez sur les boutons verts avec une croix noire pour zoomer, sur le bouton vert avec un tiret pour effectuer un zoom arrière, ou sur les flèches vertes pour les cartes adjacentes.


METAR-TAF: